Time;durP1;ratioP1;P1;durP2;ratioP2;P2;SDS_P1;SDS_P2;PMS_P1;PMS_P2;Temp;Humidity;BMP_temperature;BMP_pressure;BME280_temperature;BME280_humidity;BME280_pressure;Samples;Min_cycle;Max_cycle;Signal;HPM_P1;HPM_P2
2021/05/05 07:30:57;;;;;;;6.40;1.27;;;10.60;98.20;;;;;;6025088;23;19936;31
2021/05/05 07:33:24;;;;;;;7.55;1.38;;;10.70;97.10;;;;;;4925896;29;19931;-88
2021/05/05 07:35:54;;;;;;;8.25;1.48;;;10.90;97.20;;;;;;4914011;29;20894;-88
2021/05/05 07:48:56;;;;;;;;;;;11.30;95.10;;;;;;4916980;29;20095;-86
2021/05/05 07:51:23;;;;;;;9.85;1.42;;;11.30;95.60;;;;;;4916929;29;20010;-89
2021/05/05 07:53:49;;;;;;;7.63;1.50;;;11.30;95.60;;;;;;4917538;29;20571;-86
2021/05/05 07:56:15;;;;;;;8.35;1.40;;;11.20;95.50;;;;;;4915795;29;20041;-88
2021/05/05 07:58:42;;;;;;;16.10;1.60;;;11.10;96.10;;;;;;4917676;29;20044;-87
2021/05/05 08:01:13;;;;;;;6.80;1.25;;;11.10;96.40;;;;;;4916549;29;20047;-87
2021/05/05 08:03:40;;;;;;;9.57;1.92;;;11.10;96.20;;;;;;4917149;29;20119;-87
2021/05/05 08:06:07;;;;;;;10.27;1.30;;;11.00;96.50;;;;;;4915145;29;20119;-86
2021/05/05 08:08:33;;;;;;;18.67;2.33;;;10.90;96.70;;;;;;4917069;29;20043;-86
2021/05/05 08:11:00;;;;;;;8.05;1.33;;;10.80;97.30;;;;;;4916202;29;20055;-82
2021/05/05 08:13:27;;;;;;;7.00;1.20;;;10.70;97.30;;;;;;4917173;29;20115;-85
2021/05/05 08:15:55;;;;;;;5.35;1.10;;;10.60;97.00;;;;;;4916808;29;20084;-85
2021/05/05 08:18:21;;;;;;;7.77;1.73;;;10.40;97.00;;;;;;4946819;29;20070;-89
2021/05/05 08:20:48;;;;;;;7.57;1.48;;;10.20;98.00;;;;;;4931205;29;20048;-86
2021/05/05 08:23:17;;;;;;;6.50;1.30;;;10.20;98.80;;;;;;4916429;29;20048;-87
2021/05/05 08:25:43;;;;;;;6.47;1.90;;;10.10;99.40;;;;;;4916636;29;20115;-86
2021/05/05 08:28:11;;;;;;;7.30;1.40;;;10.20;99.70;;;;;;4918610;29;20044;-86
2021/05/05 08:30:38;;;;;;;6.00;1.42;;;10.20;99.50;;;;;;4916333;29;20059;-88
2021/05/05 08:33:05;;;;;;;6.88;1.60;;;10.30;99.60;;;;;;4933649;29;20040;-87
2021/05/05 08:35:32;;;;;;;7.53;1.20;;;10.40;99.40;;;;;;4935439;29;20095;-86
2021/05/05 08:37:58;;;;;;;7.60;1.13;;;10.50;99.20;;;;;;4935671;29;20051;-86
2021/05/05 08:40:25;;;;;;;7.97;2.08;;;10.70;98.50;;;;;;4931469;29;20055;-87
2021/05/05 08:42:51;;;;;;;5.78;1.33;;;10.90;98.20;;;;;;4935591;29;20130;-88
2021/05/05 08:45:21;;;;;;;6.78;1.15;;;11.10;97.50;;;;;;4935974;29;20056;-85
2021/05/05 08:47:50;;;;;;;8.23;1.30;;;11.40;97.10;;;;;;4935369;29;20083;-87
2021/05/05 08:50:19;;;;;;;6.68;1.27;;;11.60;97.30;;;;;;4936270;29;20131;-84
2021/05/05 08:52:46;;;;;;;9.30;1.50;;;11.80;96.90;;;;;;4935525;29;20059;-83
2021/05/05 08:55:16;;;;;;;5.45;1.23;;;11.90;96.50;;;;;;4951198;28;20574;-85
2021/05/05 08:57:44;;;;;;;7.20;1.30;;;12.00;96.30;;;;;;4931200;29;20047;-86
2021/05/05 09:00:14;;;;;;;7.47;1.30;;;12.00;96.50;;;;;;4935625;29;20078;-85
2021/05/05 09:02:41;;;;;;;9.60;2.45;;;12.10;95.80;;;;;;4934980;29;20044;-87
2021/05/05 09:05:27;;;;;;;4.80;1.10;;;12.10;95.50;;;;;;4934755;29;20417;-88
2021/05/05 09:07:53;;;;;;;4.68;1.15;;;12.00;95.20;;;;;;4935250;29;20106;-87
2021/05/05 09:10:23;;;;;;;5.03;1.00;;;11.90;95.00;;;;;;4935066;29;20102;-86
2021/05/05 09:12:53;;;;;;;6.22;1.52;;;12.00;95.50;;;;;;4934979;29;20048;-85
2021/05/05 09:15:30;;;;;;;5.72;1.35;;;12.00;95.30;;;;;;4935974;29;20485;-85
2021/05/05 09:17:58;;;;;;;9.48;1.30;;;12.10;95.00;;;;;;4936158;29;20518;-87
2021/05/05 09:20:32;;;;;;;5.68;1.30;;;12.10;94.40;;;;;;4934468;29;20102;-83
2021/05/05 09:23:01;;;;;;;6.28;1.17;;;12.10;93.50;;;;;;4935001;29;20039;-86
2021/05/05 09:25:30;;;;;;;6.47;1.35;;;12.00;93.70;;;;;;4932426;29;20052;-86
2021/05/05 09:28:12;;;;;;;6.25;1.13;;;12.10;93.60;;;;;;4950192;29;20048;-83
2021/05/05 09:30:41;;;;;;;5.38;1.00;;;12.10;93.40;;;;;;4934188;29;20430;-87
2021/05/05 09:33:09;;;;;;;6.28;1.17;;;12.20;93.70;;;;;;4934780;29;20055;-81
2021/05/05 09:35:38;;;;;;;7.22;1.48;;;12.40;93.90;;;;;;4935642;29;20048;-86
2021/05/05 09:38:08;;;;;;;;;;;12.50;93.90;;;;;;4935560;29;20059;-83
2021/05/05 09:40:36;;;;;;;8.88;1.50;;;12.50;93.10;;;;;;4934390;29;19970;-86
2021/05/05 09:43:17;;;;;;;7.00;1.17;;;12.50;93.50;;;;;;4935224;29;20510;-87
2021/05/05 09:45:44;;;;;;;6.22;1.25;;;12.60;93.60;;;;;;4934974;29;20052;-84
2021/05/05 09:48:12;;;;;;;6.72;1.10;;;12.60;93.40;;;;;;4934866;29;20122;-85
2021/05/05 09:50:44;;;;;;;4.78;1.10;;;12.70;92.80;;;;;;4935236;29;20055;-83
2021/05/05 09:53:18;;;;;;;8.48;1.38;;;12.70;92.30;;;;;;4933686;29;20062;-85
2021/05/05 09:56:07;;;;;;;5.68;1.50;;;12.70;92.40;;;;;;4935342;29;20059;-85
2021/05/05 09:58:35;;;;;;;;;;;12.70;92.40;;;;;;4932789;29;20495;-84
2021/05/05 10:01:07;;;;;;;4.93;1.10;;;12.70;92.20;;;;;;4934862;29;19922;-85
2021/05/05 10:03:53;;;;;;;8.00;0.95;;;12.70;91.60;;;;;;4949261;28;20047;-85
2021/05/05 10:06:31;;;;;;;4.05;1.20;;;12.60;92.20;;;;;;4933539;29;20056;-87
2021/05/05 10:09:00;;;;;;;5.85;1.23;;;12.60;92.20;;;;;;4935011;29;20044;-86
2021/05/05 10:11:29;;;;;;;4.82;0.90;;;12.50;92.20;;;;;;4933040;29;20460;-86
2021/05/05 10:14:00;;;;;;;8.75;1.38;;;12.50;92.40;;;;;;4935051;29;20052;-86
2021/05/05 10:16:29;;;;;;;5.35;1.20;;;12.60;92.70;;;;;;4930117;29;20083;-87
2021/05/05 10:18:56;;;;;;;7.97;1.35;;;12.60;93.00;;;;;;4934966;29;20451;-87
2021/05/05 10:21:25;;;;;;;4.32;0.90;;;12.60;92.80;;;;;;4934340;29;20135;-87
2021/05/05 10:23:56;;;;;;;5.80;1.08;;;12.60;93.20;;;;;;4934838;29;20185;-86
2021/05/05 10:26:25;;;;;;;10.40;1.40;;;12.60;93.00;;;;;;4934660;29;20131;-87
2021/05/05 10:28:52;;;;;;;6.88;1.13;;;12.50;92.80;;;;;;4933502;29;20075;-84
2021/05/05 10:31:24;;;;;;;7.57;1.20;;;12.40;92.80;;;;;;4949108;28;20063;-86
2021/05/05 10:33:54;;;;;;;5.53;1.13;;;12.30;93.90;;;;;;4934488;29;20138;-86
2021/05/05 10:36:40;;;;;;;3.83;0.90;;;12.30;95.10;;;;;;4934218;29;20511;-87
2021/05/05 10:39:19;;;;;;;7.60;1.70;;;12.10;95.10;;;;;;4932906;29;20040;-86
2021/05/05 10:41:59;;;;;;;5.70;1.10;;;11.90;95.40;;;;;;4928881;29;20060;-86
2021/05/05 10:44:38;;;;;;;5.25;1.25;;;11.90;95.30;;;;;;4931513;29;20099;-85
2021/05/05 10:47:34;;;;;;;6.43;1.40;;;12.00;95.50;;;;;;4934248;29;20071;-86
2021/05/05 10:50:02;;;;;;;6.72;1.20;;;12.10;95.70;;;;;;4933146;29;20047;-85
2021/05/05 10:52:33;;;;;;;4.30;1.30;;;12.10;95.60;;;;;;4933452;29;20075;-86
2021/05/05 10:55:03;;;;;;;8.57;1.40;;;12.10;96.40;;;;;;4934662;29;20087;-86
2021/05/05 10:57:29;;;;;;;6.18;1.52;;;12.20;96.40;;;;;;4932604;29;20050;-86
2021/05/05 11:00:07;;;;;;;8.10;1.50;;;12.30;96.90;;;;;;4934214;29;20047;-87
2021/05/05 11:02:48;;;;;;;7.68;1.98;;;12.40;97.40;;;;;;4928340;29;20072;-86
2021/05/05 11:05:21;;;;;;;11.50;1.80;;;12.60;97.60;;;;;;4932672;29;20047;-85
2021/05/05 11:07:52;;;;;;;5.78;1.20;;;12.70;97.00;;;;;;4932857;29;20510;-86
2021/05/05 11:10:31;;;;;;;4.75;1.00;;;12.80;96.10;;;;;;4933059;29;20063;-87
2021/05/05 11:13:08;;;;;;;7.40;1.10;;;12.90;95.50;;;;;;4948595;28;20039;-86
2021/05/05 11:15:41;;;;;;;3.72;0.80;;;12.90;95.10;;;;;;4933815;29;20095;-86
2021/05/05 11:18:26;;;;;;;4.47;0.90;;;12.90;93.10;;;;;;4933651;29;20047;-87
2021/05/05 11:20:57;;;;;;;5.43;1.00;;;12.90;92.90;;;;;;4928546;29;20071;-85
2021/05/05 11:23:51;;;;;;;2.97;1.00;;;13.00;93.20;;;;;;4937489;29;20066;-85
2021/05/05 11:26:32;;;;;;;8.05;1.52;;;13.20;92.30;;;;;;4922651;29;20056;-86
2021/05/05 11:29:03;;;;;;;3.90;0.80;;;13.30;92.80;;;;;;4937419;29;20118;-85
2021/05/05 11:31:48;;;;;;;5.53;1.17;;;13.40;92.50;;;;;;4933186;29;20059;-85
2021/05/05 11:34:18;;;;;;;3.10;0.82;;;13.30;91.50;;;;;;4937972;29;20049;-85
2021/05/05 11:37:02;;;;;;;3.97;0.88;;;13.30;92.10;;;;;;4937781;29;20044;-84
2021/05/05 11:39:33;;;;;;;7.32;0.98;;;13.20;91.50;;;;;;4936942;29;20047;-86
2021/05/05 11:42:01;;;;;;;4.22;0.93;;;13.10;91.30;;;;;;4936114;29;20123;-85
2021/05/05 11:44:36;;;;;;;3.75;1.13;;;13.00;91.60;;;;;;4936915;29;20058;-86
2021/05/05 11:47:09;;;;;;;5.63;1.38;;;13.00;91.70;;;;;;4922890;29;20051;-86
2021/05/05 11:49:39;;;;;;;4.82;0.60;;;13.00;91.70;;;;;;4936334;29;20044;-86
2021/05/05 11:52:38;;;;;;;5.15;0.93;;;13.10;91.40;;;;;;4937738;29;20139;-84
2021/05/05 11:55:27;;;;;;;3.83;0.80;;;12.90;92.30;;;;;;4896983;29;20049;-84
2021/05/05 11:57:54;;;;;;;;;;;12.80;92.90;;;;;;4893186;29;20220;-86
2021/05/05 12:00:39;;;;;;;5.35;0.95;;;12.60;93.10;;;;;;4892574;29;19924;-85
2021/05/05 12:03:09;;;;;;;3.60;0.90;;;12.60;93.20;;;;;;4892533;29;20619;-87
2021/05/05 12:05:45;;;;;;;6.78;0.85;;;12.50;93.30;;;;;;4881634;29;20048;-86
2021/05/05 12:08:17;;;;;;;4.78;0.82;;;12.60;93.50;;;;;;4881293;29;20052;-84
2021/05/05 12:10:43;;;;;;;4.97;0.90;;;12.80;92.80;;;;;;4896028;29;20049;-86
2021/05/05 12:13:11;;;;;;;5.47;0.80;;;12.90;93.30;;;;;;4895156;29;20048;-85
2021/05/05 12:15:41;;;;;;;5.90;1.10;;;13.10;93.30;;;;;;4892100;29;20067;-85
2021/05/05 12:18:20;;;;;;;2.97;0.75;;;13.30;92.80;;;;;;4892464;29;20075;-86
2021/05/05 12:20:49;;;;;;;6.05;1.13;;;13.40;93.10;;;;;;4894285;29;20053;-86
2021/05/05 12:23:16;;;;;;;13.05;1.40;;;13.50;93.30;;;;;;4880434;29;20060;-86
2021/05/05 12:25:43;;;;;;;3.33;0.90;;;13.50;93.10;;;;;;4880913;29;20096;-85
2021/05/05 12:28:12;;;;;;;5.97;1.10;;;13.40;93.30;;;;;;4894415;29;20048;-86
2021/05/05 12:30:48;;;;;;;11.45;1.48;;;13.40;93.40;;;;;;4911783;29;20051;-89
2021/05/05 12:33:17;;;;;;;5.90;1.00;;;13.50;93.40;;;;;;4935321;29;20082;-88
2021/05/05 12:35:44;;;;;;;4.20;0.82;;;13.60;93.50;;;;;;4936902;29;20044;-87
2021/05/05 12:38:18;;;;;;;5.75;0.95;;;13.60;93.00;;;;;;4935350;29;20064;-89
2021/05/05 12:40:46;;;;;;;3.47;0.75;;;13.50;92.80;;;;;;4935710;29;20091;-88
2021/05/05 12:43:16;;;;;;;10.02;1.83;;;13.60;92.80;;;;;;4935596;29;20128;-89
2021/05/05 12:45:45;;;;;;;5.80;0.95;;;13.50;92.80;;;;;;4930973;29;20384;-86
2021/05/05 12:48:11;;;;;;;5.93;1.13;;;13.50;92.30;;;;;;4934862;29;20110;-90
2021/05/05 12:50:43;;;;;;;4.63;0.90;;;13.60;92.60;;;;;;4931793;29;20433;-88
2021/05/05 12:53:10;;;;;;;5.88;1.00;;;13.70;92.00;;;;;;4935133;29;20126;-87
2021/05/05 12:55:40;;;;;;;4.25;0.82;;;13.70;91.20;;;;;;4935688;29;20055;-89
2021/05/05 12:58:09;;;;;;;4.20;0.80;;;13.80;91.50;;;;;;4951250;28;20082;-86
2021/05/05 13:00:39;;;;;;;7.30;1.17;;;13.80;91.10;;;;;;4936583;29;20055;-85
2021/05/05 13:03:21;;;;;;;7.43;1.13;;;13.70;91.00;;;;;;4934047;29;20511;-89
2021/05/05 13:06:05;;;;;;;5.35;0.93;;;13.60;91.10;;;;;;4934852;29;20581;-88
2021/05/05 13:08:36;;;;;;;9.75;1.02;;;13.60;91.10;;;;;;4934586;29;20538;-88
2021/05/05 13:11:11;;;;;;;3.85;1.00;;;13.50;91.60;;;;;;4935665;29;20466;-88
2021/05/05 13:13:46;;;;;;;8.00;1.30;;;13.50;91.60;;;;;;4950908;28;20089;-87
2021/05/05 13:32:56;;;;;;;5.07;0.80;;;13.60;92.00;;;;;;4935044;29;20055;-88
2021/05/05 13:35:24;;;;;;;4.72;0.95;;;13.50;92.30;;;;;;4934331;29;20530;-85
2021/05/05 13:37:55;;;;;;;4.85;0.88;;;13.60;92.50;;;;;;4933894;29;20051;-84
2021/05/05 13:40:22;;;;;;;5.38;1.50;;;13.60;92.00;;;;;;4933106;29;20070;-86
2021/05/05 13:42:59;;;;;;;5.80;1.08;;;13.50;91.50;;;;;;4931534;29;20443;-87
2021/05/05 13:45:29;;;;;;;6.97;1.20;;;13.60;91.80;;;;;;4925817;29;20060;-84
2021/05/05 13:50:42;;;;;;;6.38;0.82;;;13.60;92.20;;;;;;4862738;29;20118;-90
2021/05/05 13:53:09;;;;;;;4.13;0.73;;;13.70;92.40;;;;;;4850995;29;20559;-90
2021/05/05 13:55:35;;;;;;;3.58;1.08;;;13.70;92.50;;;;;;4851791;29;20057;-87
2021/05/05 13:58:08;;;;;;;3.70;1.08;;;13.80;92.30;;;;;;4848003;29;20132;-87
2021/05/05 14:00:39;;;;;;;2.67;0.82;;;13.80;92.00;;;;;;4832964;29;20049;-86
2021/05/05 14:03:05;;;;;;;3.55;1.08;;;13.80;91.80;;;;;;4850098;29;20055;-87
2021/05/05 14:05:37;;;;;;;3.03;0.70;;;13.80;91.90;;;;;;4849953;29;20440;-88
2021/05/05 14:08:04;;;;;;;2.90;0.93;;;13.80;91.90;;;;;;4854196;29;20049;-89
2021/05/05 14:10:31;;;;;;;3.92;0.80;;;13.80;91.90;;;;;;4866878;29;20045;-86
2021/05/05 14:12:58;;;;;;;4.25;0.70;;;13.80;91.80;;;;;;4864769;29;20061;-89
2021/05/05 14:15:31;;;;;;;5.75;1.17;;;13.70;91.60;;;;;;4850934;29;20073;-85
2021/05/05 14:18:07;;;;;;;3.85;0.80;;;13.50;91.90;;;;;;4864716;29;20060;-88
2021/05/05 14:20:35;;;;;;;6.53;1.02;;;13.40;92.20;;;;;;4863332;29;20053;-88
2021/05/05 14:23:02;;;;;;;5.03;1.00;;;13.50;92.50;;;;;;4867083;29;20081;-88
2021/05/05 14:25:29;;;;;;;5.65;1.13;;;13.40;91.90;;;;;;4851444;29;20060;-89
2021/05/05 14:27:58;;;;;;;5.15;1.20;;;13.40;92.10;;;;;;4890816;29;20103;-87
2021/05/05 14:30:25;;;;;;;;;;;13.40;91.90;;;;;;4920510;29;20067;-89
2021/05/05 14:32:51;;;;;;;5.63;0.77;;;13.40;91.30;;;;;;4945175;28;19931;-84
2021/05/05 14:35:20;;;;;;;6.75;1.20;;;13.50;91.60;;;;;;4924865;29;20063;-87
2021/05/05 14:37:51;;;;;;;5.20;1.10;;;13.60;91.20;;;;;;4931249;29;20123;-89
2021/05/05 14:40:17;;;;;;;3.40;0.98;;;13.60;91.60;;;;;;4928652;29;20059;-89
2021/05/05 14:42:53;;;;;;;4.35;1.00;;;13.70;91.90;;;;;;4921717;29;20086;-90
2021/05/05 14:48:10;;;;;;;4.63;0.90;;;14.00;92.00;;;;;;4924402;29;20503;-88
2021/05/05 14:50:40;;;;;;;4.57;1.00;;;14.10;92.00;;;;;;4934798;29;20039;-86
2021/05/05 14:53:06;;;;;;;;;;;14.20;92.00;;;;;;4918180;29;20115;-88
2021/05/05 14:55:32;;;;;;;4.80;0.88;;;14.30;91.20;;;;;;4926413;29;19931;-88
2021/05/05 14:58:04;;;;;;;4.40;1.00;;;14.30;91.70;;;;;;4927357;29;20060;-86
2021/05/05 15:00:30;;;;;;;3.58;0.95;;;14.40;91.70;;;;;;4912493;29;20047;-87
2021/05/05 15:02:57;;;;;;;4.13;1.02;;;14.40;91.60;;;;;;4910614;29;20055;-86
2021/05/05 15:05:44;;;;;;;4.72;0.93;;;14.50;91.40;;;;;;4913924;29;20131;-87
2021/05/05 15:08:16;;;;;;;3.25;0.90;;;14.50;91.00;;;;;;4928438;29;20043;-88
2021/05/05 15:35:35;;;;;;;4.57;1.10;;;14.30;91.20;;;;;;4852434;29;20053;-86
2021/05/05 15:40:42;;;;;;;7.72;1.20;;;14.30;91.20;;;;;;4851442;29;20410;-86
2021/05/05 15:45:44;;;;;;;5.13;1.00;;;14.30;91.40;;;;;;4855063;29;20073;-86
2021/05/05 15:48:11;;;;;;;6.85;1.05;;;14.20;91.60;;;;;;4857510;29;20069;-87
2021/05/05 15:50:38;;;;;;;5.15;1.00;;;14.20;91.40;;;;;;4856954;29;20078;-84
2021/05/05 15:53:15;;;;;;;3.53;1.27;;;14.20;91.00;;;;;;4861464;29;20053;-87
2021/05/05 15:55:43;;;;;;;4.38;0.80;;;14.00;90.80;;;;;;4853688;29;20052;-85
2021/05/05 15:58:13;;;;;;;4.55;1.10;;;13.90;90.70;;;;;;4874721;29;20048;-86
2021/05/05 16:00:44;;;;;;;6.13;1.27;;;13.70;91.00;;;;;;4917146;29;20059;-88
2021/05/05 16:16:33;;;;;;;9.25;1.10;;;13.30;91.70;;;;;;4929687;29;20066;-88
2021/05/05 16:19:03;;;;;;;8.93;2.03;;;13.20;92.00;;;;;;4930259;29;20044;-86
2021/05/05 16:29:39;;;;;;;5.47;1.20;;;13.00;92.30;;;;;;4926777;29;20059;-87
2021/05/05 16:48:12;;;;;;;6.00;1.30;;;13.40;91.90;;;;;;4927673;29;20074;-86
2021/05/05 16:53:34;;;;;;;4.05;1.00;;;13.60;92.20;;;;;;4928298;29;20415;-86
2021/05/05 17:11:23;;;;;;;7.10;1.45;;;13.50;92.40;;;;;;4925029;29;20114;-88
2021/05/05 17:13:51;;;;;;;5.63;1.00;;;13.50;92.50;;;;;;4937735;29;20052;-84
2021/05/05 17:16:19;;;;;;;6.22;1.35;;;13.50;92.50;;;;;;4925766;29;20056;-88
2021/05/05 17:21:16;;;;;;;4.18;1.10;;;13.40;92.50;;;;;;4922871;29;20051;-87
2021/05/05 17:26:25;;;;;;;9.40;1.25;;;13.20;92.30;;;;;;4926547;29;20463;-85
2021/05/05 17:43:43;;;;;;;7.55;1.20;;;12.80;93.40;;;;;;4921477;29;20043;-86
2021/05/05 18:10:05;;;;;;;4.57;1.10;;;12.30;94.20;;;;;;4921816;29;20059;-85
2021/05/05 18:20:12;;;;;;;5.68;1.60;;;12.10;94.90;;;;;;4919013;29;20519;-86
2021/05/05 18:27:51;;;;;;;8.63;1.50;;;11.90;95.60;;;;;;4919237;29;19927;-88
2021/05/05 18:30:18;;;;;;;7.35;1.80;;;11.90;95.40;;;;;;4939422;28;20562;-86
2021/05/05 18:32:45;;;;;;;8.10;1.27;;;11.90;95.50;;;;;;4929291;29;20043;-86
2021/05/05 18:35:11;;;;;;;6.38;1.30;;;11.80;95.50;;;;;;4921732;29;20048;-87
2021/05/05 18:37:38;;;;;;;7.25;1.40;;;11.80;95.60;;;;;;4929542;29;20043;-86
2021/05/05 18:40:08;;;;;;;9.20;1.42;;;11.80;95.70;;;;;;4938517;29;20095;-86
2021/05/05 19:58:55;;;;;;;12.40;5.28;;;11.30;97.90;;;;;;4880061;29;20533;-88
2021/05/05 22:11:14;;;;;;;5.60;1.88;;;9.70;99.90;;;;;;4894072;29;20108;-85
